Погода Халебна 2 недели

Халеб, Сирия

21 июля-03 августа
  • 21июля
    Сегодня
    +26°
    +39°
    Ясно и безоблачно
    ВремяПогодаТемператураВлажностьДавлениеВетер, м/сВероятность осадков
    00:00Ясно и безоблачно+29°C66 %720 мм5.5 м/с2 %
    03:00Ясно и безоблачно+28°C69 %720 мм4.4 м/с2 %
    06:00Ясно и безоблачно+26°C73 %721 мм3.4 м/с2 %
    09:00Ясно и безоблачно+31°C51 %721 мм5.0 м/с2 %
    12:00Ясно и безоблачно+36°C27 %721 мм4.9 м/с2 %
    15:00Ясно и безоблачно+38°C24 %720 мм6.5 м/с2 %
    18:00Ясно и безоблачно+37°C29 %720 мм6.6 м/с2 %
    21:00Ясно и безоблачно+32°C46 %721 мм7.4 м/с2 %
  • 22июля
    Понедельник
    +26°
    +40°
    Ясно и безоблачно
    ВремяПогодаТемператураВлажностьДавлениеВетер, м/сВероятность осадков
    00:00Ясно и безоблачно+29°C55 %721 мм5.9 м/с2 %
    03:00Ясно и безоблачно+28°C67 %721 мм4.2 м/с2 %
    06:00Ясно и безоблачно+26°C76 %721 мм4.4 м/с2 %
    09:00Ясно и безоблачно+31°C46 %721 мм6.1 м/с2 %
    12:00Ясно и безоблачно+36°C28 %721 мм6.2 м/с2 %
    15:00Ясно и безоблачно+39°C24 %720 мм6.0 м/с2 %
    18:00Ясно и безоблачно+37°C35 %720 мм8.8 м/с2 %
    21:00Ясно и безоблачно+31°C52 %720 мм8.1 м/с2 %
  • 23июля
    Вторник
    +25°
    +40°
    Практически безоблачно
    ВремяПогодаТемператураВлажностьДавлениеВетер, м/сВероятность осадков
    00:00Ясно и безоблачно+29°C65 %720 мм5.6 м/с2 %
    03:00Ясно и безоблачно+28°C76 %721 мм4.7 м/с2 %
    06:00Ясно и безоблачно+26°C78 %721 мм4.9 м/с2 %
    09:00Ясно и безоблачно+31°C51 %721 мм6.7 м/с2 %
    12:00Ясно и безоблачно+37°C33 %721 мм7.4 м/с2 %
    15:00Практически безоблачно+39°C25 %720 мм7.2 м/с2 %
    18:00Ясно и безоблачно+36°C33 %719 мм9.7 м/с2 %
    21:00Ясно и безоблачно+30°C60 %720 мм8.8 м/с2 %
  • 24июля
    Среда
    +25°
    +38°
    Ясно и безоблачно
    ВремяПогодаТемператураВлажностьДавлениеВетер, м/сВероятность осадков
    00:00Ясно и безоблачно+28°C69 %719 мм5.9 м/с2 %
    03:00Ясно и безоблачно+27°C80 %719 мм4.6 м/с2 %
    06:00Ясно и безоблачно+26°C86 %719 мм5.0 м/с2 %
    09:00Ясно и безоблачно+31°C57 %719 мм6.4 м/с2 %
    12:00Ясно и безоблачно+35°C36 %718 мм7.3 м/с2 %
    15:00Ясно и безоблачно+37°C31 %718 мм7.7 м/с4 %
    18:00Ясно и безоблачно+35°C45 %717 мм8.4 м/с2 %
    21:00Ясно и безоблачно+30°C67 %718 мм6.9 м/с2 %
  • 25июля
    Четверг
    +24°
    +38°
    Ясно и безоблачно
    ВремяПогодаТемператураВлажностьДавлениеВетер, м/сВероятность осадков
    00:00Ясно и безоблачно+28°C78 %718 мм6.1 м/с2 %
    03:00Ясно и безоблачно+27°C82 %717 мм5.2 м/с2 %
    06:00Ясно и безоблачно+26°C83 %718 мм4.6 м/с2 %
    09:00Ясно и безоблачно+31°C53 %718 мм6.3 м/с2 %
    12:00Ясно и безоблачно+35°C30 %718 мм7.6 м/с2 %
    15:00Ясно и безоблачно+37°C24 %718 мм8.3 м/с2 %
    18:00Ясно и безоблачно+34°C39 %718 мм9.1 м/с2 %
    21:00Ясно и безоблачно+29°C60 %718 мм7.4 м/с2 %
Мы используем cookies
Соглашаюсь